sensor_id;sensor_type;location;lat;lon;timestamp;pressure;altitude;pressure_sealevel;temperature;humidity
31911;BME280;18457;52.432;16.914;2022-07-24T00:00:14;100753.06;;;18.52;69.62
31911;BME280;18457;52.432;16.914;2022-07-24T00:03:06;100752.27;;;18.57;69.91
31911;BME280;18457;52.432;16.914;2022-07-24T00:05:38;100753.75;;;18.46;70.25
31911;BME280;18457;52.432;16.914;2022-07-24T00:08:10;100754.44;;;18.21;71.49
31911;BME280;18457;52.432;16.914;2022-07-24T00:10:42;100755.88;;;18.44;71.39
31911;BME280;18457;52.432;16.914;2022-07-24T00:13:14;100758.40;;;18.48;71.20
31911;BME280;18457;52.432;16.914;2022-07-24T00:15:47;100762.20;;;18.38;71.96
31911;BME280;18457;52.432;16.914;2022-07-24T00:18:18;100760.19;;;18.08;73.84
31911;BME280;18457;52.432;16.914;2022-07-24T00:20:50;100758.55;;;18.15;74.35
31911;BME280;18457;52.432;16.914;2022-07-24T00:23:22;100764.42;;;18.00;75.02
31911;BME280;18457;52.432;16.914;2022-07-24T00:25:55;100762.80;;;18.04;75.22
31911;BME280;18457;52.432;16.914;2022-07-24T00:28:27;100772.23;;;18.09;75.06
31911;BME280;18457;52.432;16.914;2022-07-24T00:30:59;100768.85;;;17.96;75.58
31911;BME280;18457;52.432;16.914;2022-07-24T00:33:31;100765.54;;;17.92;75.91
31911;BME280;18457;52.432;16.914;2022-07-24T00:36:03;100767.32;;;17.89;75.89
31911;BME280;18457;52.432;16.914;2022-07-24T00:38:35;100765.20;;;17.84;76.21
31911;BME280;18457;52.432;16.914;2022-07-24T00:41:07;100765.30;;;17.79;76.36
31911;BME280;18457;52.432;16.914;2022-07-24T00:43:59;100765.24;;;17.64;77.24
31911;BME280;18457;52.432;16.914;2022-07-24T00:46:32;100764.51;;;17.65;77.19
31911;BME280;18457;52.432;16.914;2022-07-24T00:49:06;100765.53;;;17.66;77.30
31911;BME280;18457;52.432;16.914;2022-07-24T00:51:49;100764.95;;;17.67;77.11
31911;BME280;18457;52.432;16.914;2022-07-24T00:54:22;100766.48;;;17.73;76.68
31911;BME280;18457;52.432;16.914;2022-07-24T00:56:55;100766.41;;;17.59;77.06
31911;BME280;18457;52.432;16.914;2022-07-24T00:59:27;100768.98;;;17.56;77.31
31911;BME280;18457;52.432;16.914;2022-07-24T01:01:59;100765.44;;;17.53;77.12
31911;BME280;18457;52.432;16.914;2022-07-24T01:04:31;100772.01;;;17.57;77.21
31911;BME280;18457;52.432;16.914;2022-07-24T01:07:03;100775.14;;;17.56;77.08
31911;BME280;18457;52.432;16.914;2022-07-24T01:09:35;100780.55;;;17.46;77.19
31911;BME280;18457;52.432;16.914;2022-07-24T01:12:08;100781.75;;;17.35;77.41
31911;BME280;18457;52.432;16.914;2022-07-24T01:14:41;100784.74;;;17.46;76.87
31911;BME280;18457;52.432;16.914;2022-07-24T01:17:14;100788.20;;;17.46;76.81
31911;BME280;18457;52.432;16.914;2022-07-24T01:19:45;100790.53;;;17.27;77.45
31911;BME280;18457;52.432;16.914;2022-07-24T01:22:17;100789.91;;;17.09;78.52
31911;BME280;18457;52.432;16.914;2022-07-24T01:24:50;100793.16;;;17.17;77.99
31911;BME280;18457;52.432;16.914;2022-07-24T01:27:22;100795.35;;;17.22;77.03
31911;BME280;18457;52.432;16.914;2022-07-24T01:29:55;100795.92;;;17.21;76.56
31911;BME280;18457;52.432;16.914;2022-07-24T01:32:27;100793.61;;;17.12;76.97
31911;BME280;18457;52.432;16.914;2022-07-24T01:34:58;100793.80;;;16.95;77.26
31911;BME280;18457;52.432;16.914;2022-07-24T01:37:30;100793.98;;;16.87;77.44
31911;BME280;18457;52.432;16.914;2022-07-24T01:40:02;100790.67;;;16.96;77.24
31911;BME280;18457;52.432;16.914;2022-07-24T01:42:34;100789.50;;;16.98;77.04
31911;BME280;18457;52.432;16.914;2022-07-24T01:45:08;100788.54;;;16.95;77.02
31911;BME280;18457;52.432;16.914;2022-07-24T01:47:41;100786.79;;;17.01;76.45
31911;BME280;18457;52.432;16.914;2022-07-24T01:50:14;100783.52;;;17.09;75.93
31911;BME280;18457;52.432;16.914;2022-07-24T01:52:46;100784.94;;;17.05;75.97
31911;BME280;18457;52.432;16.914;2022-07-24T01:55:18;100785.17;;;16.92;76.12
31911;BME280;18457;52.432;16.914;2022-07-24T01:57:50;100784.76;;;16.81;76.91
31911;BME280;18457;52.432;16.914;2022-07-24T02:00:21;100785.02;;;17.00;75.83
31911;BME280;18457;52.432;16.914;2022-07-24T02:02:54;100787.35;;;16.88;75.83
31911;BME280;18457;52.432;16.914;2022-07-24T02:05:25;100790.61;;;16.81;76.09
31911;BME280;18457;52.432;16.914;2022-07-24T02:07:58;100794.42;;;16.77;76.31
31911;BME280;18457;52.432;16.914;2022-07-24T02:10:31;100789.09;;;16.86;75.62
31911;BME280;18457;52.432;16.914;2022-07-24T02:13:03;100793.98;;;16.95;74.60
31911;BME280;18457;52.432;16.914;2022-07-24T02:15:36;100797.23;;;16.79;75.17
31911;BME280;18457;52.432;16.914;2022-07-24T02:18:08;100800.77;;;16.74;75.04
31911;BME280;18457;52.432;16.914;2022-07-24T02:20:40;100798.02;;;16.74;75.13
31911;BME280;18457;52.432;16.914;2022-07-24T02:23:12;100804.76;;;16.79;74.67
31911;BME280;18457;52.432;16.914;2022-07-24T02:25:48;100803.41;;;16.80;73.92
31911;BME280;18457;52.432;16.914;2022-07-24T02:28:21;100806.73;;;16.80;73.81
31911;BME280;18457;52.432;16.914;2022-07-24T02:30:52;100812.16;;;16.80;73.67
31911;BME280;18457;52.432;16.914;2022-07-24T02:33:25;100811.27;;;16.88;73.24
31911;BME280;18457;52.432;16.914;2022-07-24T02:35:57;100814.52;;;16.89;72.97
31911;BME280;18457;52.432;16.914;2022-07-24T02:38:29;100814.13;;;16.90;72.75
31911;BME280;18457;52.432;16.914;2022-07-24T02:41:01;100818.02;;;16.80;73.17
31911;BME280;18457;52.432;16.914;2022-07-24T02:43:32;100820.46;;;16.70;73.12
31911;BME280;18457;52.432;16.914;2022-07-24T02:46:04;100814.36;;;16.58;73.50
31911;BME280;18457;52.432;16.914;2022-07-24T02:48:36;100816.64;;;16.66;73.24
31911;BME280;18457;52.432;16.914;2022-07-24T02:51:09;100820.38;;;16.63;73.35
31911;BME280;18457;52.432;16.914;2022-07-24T02:53:41;100820.30;;;16.56;73.51
31911;BME280;18457;52.432;16.914;2022-07-24T02:56:13;100824.92;;;16.50;73.86
31911;BME280;18457;52.432;16.914;2022-07-24T02:58:45;100820.70;;;16.55;73.59
31911;BME280;18457;52.432;16.914;2022-07-24T03:01:17;100824.38;;;16.64;73.00
31911;BME280;18457;52.432;16.914;2022-07-24T03:03:49;100827.04;;;16.61;73.26
31911;BME280;18457;52.432;16.914;2022-07-24T03:06:20;100830.05;;;16.59;73.20
31911;BME280;18457;52.432;16.914;2022-07-24T03:08:53;100836.61;;;16.41;73.55
31911;BME280;18457;52.432;16.914;2022-07-24T03:11:25;100835.64;;;16.29;74.10
31911;BME280;18457;52.432;16.914;2022-07-24T03:13:57;100836.64;;;16.22;74.15
31911;BME280;18457;52.432;16.914;2022-07-24T03:16:28;100835.69;;;16.14;74.48
31911;BME280;18457;52.432;16.914;2022-07-24T03:19:05;100838.46;;;16.13;74.45
31911;BME280;18457;52.432;16.914;2022-07-24T03:21:37;100837.77;;;16.12;74.62
31911;BME280;18457;52.432;16.914;2022-07-24T03:24:18;100837.82;;;16.16;74.55
31911;BME280;18457;52.432;16.914;2022-07-24T03:26:50;100834.41;;;16.14;74.40
31911;BME280;18457;52.432;16.914;2022-07-24T03:29:21;100837.86;;;16.05;74.82
31911;BME280;18457;52.432;16.914;2022-07-24T03:31:53;100841.03;;;16.04;74.92
31911;BME280;18457;52.432;16.914;2022-07-24T03:34:25;100842.23;;;15.96;75.17
31911;BME280;18457;52.432;16.914;2022-07-24T03:36:57;100841.30;;;15.92;75.54
31911;BME280;18457;52.432;16.914;2022-07-24T03:39:29;100839.81;;;16.02;74.88
31911;BME280;18457;52.432;16.914;2022-07-24T03:42:00;100842.73;;;16.02;74.84
31911;BME280;18457;52.432;16.914;2022-07-24T03:44:32;100842.00;;;15.98;75.02
31911;BME280;18457;52.432;16.914;2022-07-24T03:47:04;100842.84;;;15.90;75.11
31911;BME280;18457;52.432;16.914;2022-07-24T03:49:36;100848.04;;;15.97;74.79
31911;BME280;18457;52.432;16.914;2022-07-24T03:52:08;100843.06;;;15.98;74.36
31911;BME280;18457;52.432;16.914;2022-07-24T03:54:41;100846.05;;;15.68;75.68
31911;BME280;18457;52.432;16.914;2022-07-24T03:57:13;100847.42;;;15.80;75.56
31911;BME280;18457;52.432;16.914;2022-07-24T03:59:45;100851.29;;;15.84;75.38
31911;BME280;18457;52.432;16.914;2022-07-24T04:02:17;100855.11;;;15.65;76.10
31911;BME280;18457;52.432;16.914;2022-07-24T04:04:49;100857.69;;;15.69;76.38
31911;BME280;18457;52.432;16.914;2022-07-24T04:07:21;100862.39;;;15.70;76.42
31911;BME280;18457;52.432;16.914;2022-07-24T04:09:53;100856.77;;;15.88;75.57
31911;BME280;18457;52.432;16.914;2022-07-24T04:12:25;100857.83;;;15.94;75.25
31911;BME280;18457;52.432;16.914;2022-07-24T04:14:57;100855.84;;;16.12;74.59
31911;BME280;18457;52.432;16.914;2022-07-24T04:17:28;100853.45;;;15.98;74.72
31911;BME280;18457;52.432;16.914;2022-07-24T04:20:00;100853.67;;;16.06;74.64
31911;BME280;18457;52.432;16.914;2022-07-24T04:22:31;100858.11;;;16.05;74.39
31911;BME280;18457;52.432;16.914;2022-07-24T04:25:09;100858.73;;;16.12;74.30
31911;BME280;18457;52.432;16.914;2022-07-24T04:27:41;100859.52;;;15.93;74.93
31911;BME280;18457;52.432;16.914;2022-07-24T04:30:14;100862.91;;;16.08;74.30
31911;BME280;18457;52.432;16.914;2022-07-24T04:32:46;100866.11;;;16.10;74.12
31911;BME280;18457;52.432;16.914;2022-07-24T04:35:18;100863.62;;;16.22;73.65
31911;BME280;18457;52.432;16.914;2022-07-24T04:37:50;100868.37;;;16.26;73.72
31911;BME280;18457;52.432;16.914;2022-07-24T04:40:22;100867.89;;;16.25;73.91
31911;BME280;18457;52.432;16.914;2022-07-24T04:42:53;100871.45;;;16.09;74.17
31911;BME280;18457;52.432;16.914;2022-07-24T04:45:25;100870.52;;;16.19;74.28
31911;BME280;18457;52.432;16.914;2022-07-24T04:48:06;100866.94;;;16.17;73.68
31911;BME280;18457;52.432;16.914;2022-07-24T04:50:38;100870.29;;;16.20;73.77
31911;BME280;18457;52.432;16.914;2022-07-24T04:53:10;100872.23;;;16.16;73.93
31911;BME280;18457;52.432;16.914;2022-07-24T04:55:42;100878.09;;;16.34;73.50
31911;BME280;18457;52.432;16.914;2022-07-24T04:58:14;100879.31;;;16.31;73.62
31911;BME280;18457;52.432;16.914;2022-07-24T05:00:46;100876.48;;;16.29;73.28
31911;BME280;18457;52.432;16.914;2022-07-24T05:03:18;100876.09;;;16.16;74.12
31911;BME280;18457;52.432;16.914;2022-07-24T05:05:52;100878.04;;;16.26;74.18
31911;BME280;18457;52.432;16.914;2022-07-24T05:08:24;100882.72;;;16.41;73.46
31911;BME280;18457;52.432;16.914;2022-07-24T05:10:56;100886.52;;;16.43;73.39
31911;BME280;18457;52.432;16.914;2022-07-24T05:13:28;100890.98;;;16.40;73.90
31911;BME280;18457;52.432;16.914;2022-07-24T05:16:00;100893.02;;;16.48;73.27
31911;BME280;18457;52.432;16.914;2022-07-24T05:18:32;100897.91;;;16.54;73.30
31911;BME280;18457;52.432;16.914;2022-07-24T05:21:05;100898.21;;;16.51;73.44
31911;BME280;18457;52.432;16.914;2022-07-24T05:23:37;100897.95;;;16.58;73.30
31911;BME280;18457;52.432;16.914;2022-07-24T05:26:10;100902.58;;;16.74;73.12
31911;BME280;18457;52.432;16.914;2022-07-24T05:28:42;100902.52;;;16.67;73.05
31911;BME280;18457;52.432;16.914;2022-07-24T05:31:13;100902.05;;;16.73;73.14
31911;BME280;18457;52.432;16.914;2022-07-24T05:33:45;100908.27;;;16.69;72.78
31911;BME280;18457;52.432;16.914;2022-07-24T05:36:18;100908.57;;;16.61;73.45
31911;BME280;18457;52.432;16.914;2022-07-24T05:38:49;100911.21;;;16.59;73.61
31911;BME280;18457;52.432;16.914;2022-07-24T05:41:21;100910.65;;;16.77;73.42
31911;BME280;18457;52.432;16.914;2022-07-24T05:43:53;100908.88;;;16.81;73.15
31911;BME280;18457;52.432;16.914;2022-07-24T05:46:25;100912.51;;;16.85;72.97
31911;BME280;18457;52.432;16.914;2022-07-24T05:48:57;100907.55;;;17.03;72.52
31911;BME280;18457;52.432;16.914;2022-07-24T05:51:29;100913.02;;;17.16;72.48
31911;BME280;18457;52.432;16.914;2022-07-24T05:54:01;100908.25;;;17.08;72.43
31911;BME280;18457;52.432;16.914;2022-07-24T05:56:33;100912.79;;;17.17;72.30
31911;BME280;18457;52.432;16.914;2022-07-24T05:59:05;100908.23;;;17.25;71.67
31911;BME280;18457;52.432;16.914;2022-07-24T06:01:38;100907.04;;;17.32;71.91
31911;BME280;18457;52.432;16.914;2022-07-24T06:04:10;100906.86;;;17.44;70.97
31911;BME280;18457;52.432;16.914;2022-07-24T06:06:42;100914.48;;;17.50;71.09
31911;BME280;18457;52.432;16.914;2022-07-24T06:09:13;100919.35;;;17.46;70.14
31911;BME280;18457;52.432;16.914;2022-07-24T06:11:45;100915.27;;;17.48;69.85
31911;BME280;18457;52.432;16.914;2022-07-24T06:14:17;100917.91;;;17.54;69.65
31911;BME280;18457;52.432;16.914;2022-07-24T06:16:49;100916.36;;;17.61;69.04
31911;BME280;18457;52.432;16.914;2022-07-24T06:19:21;100916.27;;;17.75;68.84
31911;BME280;18457;52.432;16.914;2022-07-24T06:21:53;100913.77;;;17.89;68.35
31911;BME280;18457;52.432;16.914;2022-07-24T06:24:25;100912.77;;;17.84;67.72
31911;BME280;18457;52.432;16.914;2022-07-24T06:26:57;100912.39;;;17.84;67.56
31911;BME280;18457;52.432;16.914;2022-07-24T06:29:44;100910.44;;;17.90;67.30
31911;BME280;18457;52.432;16.914;2022-07-24T06:32:16;100913.77;;;17.94;66.79
31911;BME280;18457;52.432;16.914;2022-07-24T06:34:48;100915.67;;;17.92;66.69
31911;BME280;18457;52.432;16.914;2022-07-24T06:37:19;100917.27;;;18.12;66.87
31911;BME280;18457;52.432;16.914;2022-07-24T06:39:51;100914.37;;;18.12;66.58
31911;BME280;18457;52.432;16.914;2022-07-24T06:42:23;100916.69;;;18.05;66.12
31911;BME280;18457;52.432;16.914;2022-07-24T06:44:55;100918.86;;;18.05;66.23
31911;BME280;18457;52.432;16.914;2022-07-24T06:47:27;100922.72;;;18.09;65.75
31911;BME280;18457;52.432;16.914;2022-07-24T06:49:59;100916.62;;;18.10;65.58
31911;BME280;18457;52.432;16.914;2022-07-24T06:52:31;100917.50;;;18.15;64.93
31911;BME280;18457;52.432;16.914;2022-07-24T06:55:04;100918.30;;;18.10;63.81
31911;BME280;18457;52.432;16.914;2022-07-24T06:57:36;100916.55;;;18.12;63.94
31911;BME280;18457;52.432;16.914;2022-07-24T07:00:11;100917.52;;;18.23;63.69
31911;BME280;18457;52.432;16.914;2022-07-24T07:02:42;100917.90;;;18.22;63.47
31911;BME280;18457;52.432;16.914;2022-07-24T07:05:14;100923.60;;;18.10;62.82
31911;BME280;18457;52.432;16.914;2022-07-24T07:07:47;100920.23;;;18.27;62.80
31911;BME280;18457;52.432;16.914;2022-07-24T07:10:19;100923.27;;;18.40;62.09
31911;BME280;18457;52.432;16.914;2022-07-24T07:12:50;100928.91;;;18.49;61.60
31911;BME280;18457;52.432;16.914;2022-07-24T07:15:23;100927.70;;;18.55;61.37
31911;BME280;18457;52.432;16.914;2022-07-24T07:17:55;100921.98;;;18.52;61.39
31911;BME280;18457;52.432;16.914;2022-07-24T07:20:30;100921.91;;;18.57;60.73
31911;BME280;18457;52.432;16.914;2022-07-24T07:23:02;100923.51;;;18.55;60.48
31911;BME280;18457;52.432;16.914;2022-07-24T07:25:33;100923.00;;;18.58;60.43
31911;BME280;18457;52.432;16.914;2022-07-24T07:28:05;100923.41;;;18.82;60.25
31911;BME280;18457;52.432;16.914;2022-07-24T07:30:37;100922.76;;;18.85;59.64
31911;BME280;18457;52.432;16.914;2022-07-24T07:33:09;100923.72;;;18.94;59.09
31911;BME280;18457;52.432;16.914;2022-07-24T07:35:41;100926.16;;;19.00;58.26
31911;BME280;18457;52.432;16.914;2022-07-24T07:38:13;100931.34;;;18.99;58.04
31911;BME280;18457;52.432;16.914;2022-07-24T07:40:52;100931.72;;;18.95;57.41
31911;BME280;18457;52.432;16.914;2022-07-24T07:43:24;100935.21;;;19.09;57.80
31911;BME280;18457;52.432;16.914;2022-07-24T07:45:56;100936.14;;;19.20;57.38
31911;BME280;18457;52.432;16.914;2022-07-24T07:48:28;100936.23;;;19.29;57.23
31911;BME280;18457;52.432;16.914;2022-07-24T07:51:01;100935.48;;;19.47;57.17
31911;BME280;18457;52.432;16.914;2022-07-24T07:53:33;100933.94;;;19.45;56.74
31911;BME280;18457;52.432;16.914;2022-07-24T07:56:05;100933.40;;;19.56;56.52
31911;BME280;18457;52.432;16.914;2022-07-24T07:58:37;100929.75;;;19.41;56.26
31911;BME280;18457;52.432;16.914;2022-07-24T08:01:09;100929.94;;;19.27;56.45
31911;BME280;18457;52.432;16.914;2022-07-24T08:03:41;100927.45;;;19.43;56.57
31911;BME280;18457;52.432;16.914;2022-07-24T08:06:13;100923.77;;;19.54;56.94
31911;BME280;18457;52.432;16.914;2022-07-24T08:08:45;100924.05;;;19.42;56.94
31911;BME280;18457;52.432;16.914;2022-07-24T08:11:17;100928.98;;;19.63;56.36
31911;BME280;18457;52.432;16.914;2022-07-24T08:13:48;100927.45;;;19.74;56.14
31911;BME280;18457;52.432;16.914;2022-07-24T08:16:20;100929.37;;;19.86;56.00
31911;BME280;18457;52.432;16.914;2022-07-24T08:18:52;100938.77;;;19.78;55.82
31911;BME280;18457;52.432;16.914;2022-07-24T08:21:24;100939.66;;;19.72;56.10
31911;BME280;18457;52.432;16.914;2022-07-24T08:23:56;100945.04;;;19.64;55.88
31911;BME280;18457;52.432;16.914;2022-07-24T08:26:29;100938.34;;;19.59;55.84
31911;BME280;18457;52.432;16.914;2022-07-24T08:29:01;100934.03;;;19.81;55.64
31911;BME280;18457;52.432;16.914;2022-07-24T08:31:34;100935.04;;;20.07;55.50
31911;BME280;18457;52.432;16.914;2022-07-24T08:34:07;100933.26;;;20.19;55.72
31911;BME280;18457;52.432;16.914;2022-07-24T08:36:38;100938.63;;;20.48;55.69
31911;BME280;18457;52.432;16.914;2022-07-24T08:39:10;100951.92;;;20.13;55.19
31911;BME280;18457;52.432;16.914;2022-07-24T08:41:45;100950.06;;;20.21;55.41
31911;BME280;18457;52.432;16.914;2022-07-24T08:44:17;100947.47;;;20.18;55.41
31911;BME280;18457;52.432;16.914;2022-07-24T08:46:50;100948.52;;;20.32;55.40
31911;BME280;18457;52.432;16.914;2022-07-24T08:49:26;100952.55;;;20.26;54.87
31911;BME280;18457;52.432;16.914;2022-07-24T08:52:00;100943.46;;;20.21;54.71
31911;BME280;18457;52.432;16.914;2022-07-24T08:54:35;100946.79;;;20.34;54.69
31911;BME280;18457;52.432;16.914;2022-07-24T08:57:08;100946.88;;;20.38;54.39
31911;BME280;18457;52.432;16.914;2022-07-24T08:59:40;100945.83;;;20.34;54.52
31911;BME280;18457;52.432;16.914;2022-07-24T09:02:12;100945.04;;;20.51;54.49
31911;BME280;18457;52.432;16.914;2022-07-24T09:04:44;100950.58;;;20.67;54.28
31911;BME280;18457;52.432;16.914;2022-07-24T09:07:17;100942.23;;;20.65;54.03
31911;BME280;18457;52.432;16.914;2022-07-24T09:09:59;100949.98;;;20.67;53.97
31911;BME280;18457;52.432;16.914;2022-07-24T09:12:36;100953.13;;;20.64;54.05
31911;BME280;18457;52.432;16.914;2022-07-24T09:15:14;100954.27;;;20.66;54.37
31911;BME280;18457;52.432;16.914;2022-07-24T09:17:51;100957.27;;;20.62;54.02
31911;BME280;18457;52.432;16.914;2022-07-24T09:20:25;100958.59;;;20.84;53.93
31911;BME280;18457;52.432;16.914;2022-07-24T09:22:59;100956.63;;;20.70;53.92
31911;BME280;18457;52.432;16.914;2022-07-24T09:25:37;100959.46;;;20.75;53.96
31911;BME280;18457;52.432;16.914;2022-07-24T09:28:09;100962.33;;;21.02;53.57
31911;BME280;18457;52.432;16.914;2022-07-24T09:30:45;100970.80;;;20.92;53.32
31911;BME280;18457;52.432;16.914;2022-07-24T09:33:20;100962.29;;;20.71;53.87
31911;BME280;18457;52.432;16.914;2022-07-24T09:35:55;100966.83;;;21.00;53.85
31911;BME280;18457;52.432;16.914;2022-07-24T09:38:28;100970.36;;;21.06;53.30
31911;BME280;18457;52.432;16.914;2022-07-24T09:41:01;100970.58;;;21.15;52.78
31911;BME280;18457;52.432;16.914;2022-07-24T09:43:35;100970.64;;;21.14;53.27
31911;BME280;18457;52.432;16.914;2022-07-24T09:46:11;100968.27;;;21.23;53.10
31911;BME280;18457;52.432;16.914;2022-07-24T09:48:54;100974.20;;;21.13;53.47
31911;BME280;18457;52.432;16.914;2022-07-24T09:51:28;100968.58;;;21.15;53.66
31911;BME280;18457;52.432;16.914;2022-07-24T09:54:02;100968.23;;;21.08;53.45
31911;BME280;18457;52.432;16.914;2022-07-24T09:56:36;100964.64;;;21.22;53.42
31911;BME280;18457;52.432;16.914;2022-07-24T09:59:09;100968.01;;;21.36;53.29
31911;BME280;18457;52.432;16.914;2022-07-24T10:01:44;100969.51;;;21.45;52.94
31911;BME280;18457;52.432;16.914;2022-07-24T10:04:20;100959.83;;;21.59;52.49
31911;BME280;18457;52.432;16.914;2022-07-24T10:06:54;100966.20;;;21.51;52.76
31911;BME280;18457;52.432;16.914;2022-07-24T10:09:28;100960.27;;;21.52;52.63
31911;BME280;18457;52.432;16.914;2022-07-24T10:12:02;100954.62;;;21.60;51.91
31911;BME280;18457;52.432;16.914;2022-07-24T10:14:37;100954.29;;;21.75;52.29
31911;BME280;18457;52.432;16.914;2022-07-24T10:17:11;100957.50;;;21.58;52.28
31911;BME280;18457;52.432;16.914;2022-07-24T10:19:54;100952.45;;;21.75;52.32
31911;BME280;18457;52.432;16.914;2022-07-24T10:22:30;100956.78;;;21.73;51.98
31911;BME280;18457;52.432;16.914;2022-07-24T10:25:10;100953.56;;;21.84;52.10
31911;BME280;18457;52.432;16.914;2022-07-24T10:27:52;100954.00;;;21.86;52.01
31911;BME280;18457;52.432;16.914;2022-07-24T10:30:26;100951.20;;;22.15;52.03
31911;BME280;18457;52.432;16.914;2022-07-24T10:32:58;100958.74;;;21.92;51.85
31911;BME280;18457;52.432;16.914;2022-07-24T10:35:33;100956.30;;;21.66;52.35
31911;BME280;18457;52.432;16.914;2022-07-24T10:38:10;100952.59;;;21.75;52.17
31911;BME280;18457;52.432;16.914;2022-07-24T10:40:48;100950.05;;;22.22;51.54
31911;BME280;18457;52.432;16.914;2022-07-24T10:43:21;100946.18;;;22.67;51.20
31911;BME280;18457;52.432;16.914;2022-07-24T10:46:12;100949.23;;;22.77;50.49
31911;BME280;18457;52.432;16.914;2022-07-24T10:48:45;100952.65;;;22.36;50.80
31911;BME280;18457;52.432;16.914;2022-07-24T10:51:20;100946.10;;;22.17;51.09
31911;BME280;18457;52.432;16.914;2022-07-24T10:53:55;100945.02;;;22.48;50.56
31911;BME280;18457;52.432;16.914;2022-07-24T10:56:27;100941.19;;;22.54;50.49
31911;BME280;18457;52.432;16.914;2022-07-24T10:59:00;100943.52;;;22.91;49.91
31911;BME280;18457;52.432;16.914;2022-07-24T11:01:35;100946.49;;;23.04;49.87
31911;BME280;18457;52.432;16.914;2022-07-24T11:04:30;100942.95;;;23.05;49.54
31911;BME280;18457;52.432;16.914;2022-07-24T11:07:09;100947.23;;;23.12;49.42
31911;BME280;18457;52.432;16.914;2022-07-24T11:09:58;100940.27;;;23.36;48.86
31911;BME280;18457;52.432;16.914;2022-07-24T11:12:32;100942.31;;;23.22;48.70
31911;BME280;18457;52.432;16.914;2022-07-24T11:15:10;100936.29;;;23.29;48.66
31911;BME280;18457;52.432;16.914;2022-07-24T11:18:14;100936.00;;;23.66;47.97
31911;BME280;18457;52.432;16.914;2022-07-24T11:20:46;100936.16;;;23.58;47.72
31911;BME280;18457;52.432;16.914;2022-07-24T11:23:21;100940.16;;;23.88;47.69
31911;BME280;18457;52.432;16.914;2022-07-24T11:29:14;100942.66;;;23.92;47.42
31911;BME280;18457;52.432;16.914;2022-07-24T11:31:48;100937.40;;;24.24;47.12
31911;BME280;18457;52.432;16.914;2022-07-24T11:34:21;100940.58;;;24.41;46.46
31911;BME280;18457;52.432;16.914;2022-07-24T11:36:53;100943.88;;;24.26;46.27
31911;BME280;18457;52.432;16.914;2022-07-24T11:39:29;100939.05;;;24.06;46.59
31911;BME280;18457;52.432;16.914;2022-07-24T11:42:03;100940.52;;;24.11;46.89
31911;BME280;18457;52.432;16.914;2022-07-24T11:44:37;100935.59;;;24.46;46.38
31911;BME280;18457;52.432;16.914;2022-07-24T11:47:11;100940.27;;;24.58;46.21
31911;BME280;18457;52.432;16.914;2022-07-24T11:49:45;100939.86;;;24.71;46.00
31911;BME280;18457;52.432;16.914;2022-07-24T11:52:20;100938.80;;;24.90;45.59
31911;BME280;18457;52.432;16.914;2022-07-24T11:54:54;100940.59;;;24.76;46.17
31911;BME280;18457;52.432;16.914;2022-07-24T11:57:30;100937.61;;;24.64;45.97
31911;BME280;18457;52.432;16.914;2022-07-24T12:00:26;100943.48;;;24.82;45.72
31911;BME280;18457;52.432;16.914;2022-07-24T12:03:02;100940.40;;;24.91;45.64
31911;BME280;18457;52.432;16.914;2022-07-24T12:05:34;100932.12;;;25.00;45.30
31911;BME280;18457;52.432;16.914;2022-07-24T12:08:17;100928.77;;;25.02;45.16
31911;BME280;18457;52.432;16.914;2022-07-24T12:10:57;100927.11;;;25.02;44.83
31911;BME280;18457;52.432;16.914;2022-07-24T12:13:31;100927.14;;;25.00;44.69
31911;BME280;18457;52.432;16.914;2022-07-24T12:16:04;100923.21;;;25.27;44.51
31911;BME280;18457;52.432;16.914;2022-07-24T12:18:36;100923.90;;;25.16;44.11
31911;BME280;18457;52.432;16.914;2022-07-24T12:21:08;100922.73;;;24.90;44.20
31911;BME280;18457;52.432;16.914;2022-07-24T12:23:40;100921.87;;;25.13;44.69
31911;BME280;18457;52.432;16.914;2022-07-24T12:26:12;100915.25;;;25.39;44.28
31911;BME280;18457;52.432;16.914;2022-07-24T12:28:44;100912.59;;;25.40;44.19
31911;BME280;18457;52.432;16.914;2022-07-24T12:31:17;100908.08;;;25.41;44.30
31911;BME280;18457;52.432;16.914;2022-07-24T12:33:55;100910.38;;;25.42;44.20
31911;BME280;18457;52.432;16.914;2022-07-24T12:36:27;100907.92;;;25.43;43.89
31911;BME280;18457;52.432;16.914;2022-07-24T12:38:59;100916.56;;;25.12;44.27
31911;BME280;18457;52.432;16.914;2022-07-24T12:41:34;100906.66;;;24.94;44.62
31911;BME280;18457;52.432;16.914;2022-07-24T12:44:18;100903.41;;;25.05;44.72
31911;BME280;18457;52.432;16.914;2022-07-24T12:46:50;100904.59;;;25.22;44.55
31911;BME280;18457;52.432;16.914;2022-07-24T12:49:22;100902.66;;;25.25;44.26
31911;BME280;18457;52.432;16.914;2022-07-24T12:51:55;100903.12;;;25.38;44.12
31911;BME280;18457;52.432;16.914;2022-07-24T12:54:28;100906.17;;;25.35;43.64
31911;BME280;18457;52.432;16.914;2022-07-24T12:57:06;100900.77;;;25.38;43.72
31911;BME280;18457;52.432;16.914;2022-07-24T12:59:47;100900.30;;;25.27;44.00
31911;BME280;18457;52.432;16.914;2022-07-24T13:02:22;100893.73;;;25.33;44.03
31911;BME280;18457;52.432;16.914;2022-07-24T13:04:56;100891.46;;;25.62;44.10
31911;BME280;18457;52.432;16.914;2022-07-24T13:07:32;100885.05;;;25.98;43.74
31911;BME280;18457;52.432;16.914;2022-07-24T13:10:06;100888.42;;;26.00;43.09
31911;BME280;18457;52.432;16.914;2022-07-24T13:12:38;100888.08;;;25.88;42.78
31911;BME280;18457;52.432;16.914;2022-07-24T13:15:10;100886.29;;;25.69;43.26